Time;durP1;ratioP1;P1;durP2;ratioP2;P2;SDS_P1;SDS_P2;PMS_P1;PMS_P2;Temp;Humidity;BMP_temperature;BMP_pressure;BME280_temperature;BME280_humidity;BME280_pressure;Samples;Min_cycle;Max_cycle;Signal;HPM_P1;HPM_P2
2023/04/01 00:01:16;;;;;;;0.20;0.10;;;;;;;8.65;100.00;100904.81;5027002;28;20042;-76
2023/04/01 00:03:45;;;;;;;0.88;0.40;;;;;;;8.59;100.00;100902.03;5023674;28;20532;-76
2023/04/01 00:06:16;;;;;;;2.45;0.70;;;;;;;8.60;100.00;100889.16;5024710;28;20099;-76
2023/04/01 00:08:45;;;;;;;3.15;0.70;;;;;;;8.60;100.00;100889.16;5021663;28;20057;-78
2023/04/01 00:11:15;;;;;;;0.65;0.30;;;;;;;8.59;100.00;100890.00;5018823;28;20107;-76
2023/04/01 00:13:44;;;;;;;1.33;0.47;;;;;;;8.56;100.00;100874.38;5024623;28;20054;-79
2023/04/01 00:16:13;;;;;;;1.17;0.60;;;;;;;8.51;100.00;100870.75;5030966;28;20056;-79
2023/04/01 00:18:42;;;;;;;1.60;0.60;;;;;;;8.53;100.00;100857.94;5031138;28;20230;-80
2023/04/01 00:21:11;;;;;;;2.35;0.40;;;;;;;8.52;100.00;100851.91;5024878;28;20081;-77
2023/04/01 00:23:39;;;;;;;0.85;0.30;;;;;;;8.55;100.00;100854.59;5030399;28;20072;-78
2023/04/01 00:26:08;;;;;;;0.32;0.25;;;;;;;8.59;100.00;100861.63;5020512;28;20723;-76
2023/04/01 00:28:38;;;;;;;1.60;0.30;;;;;;;8.61;100.00;100856.50;5027428;28;20041;-75
2023/04/01 00:31:08;;;;;;;0.60;0.40;;;;;;;8.60;100.00;100847.91;5016209;28;20100;-76
2023/04/01 00:33:37;;;;;;;0.40;0.10;;;;;;;8.54;100.00;100847.69;5022787;28;20049;-75
2023/04/01 00:36:10;;;;;;;0.00;0.00;;;;;;;8.57;100.00;100845.22;5025576;28;20045;-77
2023/04/01 00:38:40;;;;;;;0.10;0.10;;;;;;;8.56;100.00;100833.13;5030898;28;20049;-76
2023/04/01 00:41:10;;;;;;;0.45;0.20;;;;;;;8.49;100.00;100832.84;5005306;28;20080;-78
2023/04/01 00:43:40;;;;;;;0.43;0.28;;;;;;;8.49;100.00;100831.13;4999802;28;20046;-77
2023/04/01 00:46:09;;;;;;;0.20;0.20;;;;;;;8.51;100.00;100831.19;5007260;28;20447;-78
2023/04/01 00:48:40;;;;;;;0.45;0.20;;;;;;;8.50;100.00;100827.75;5003561;28;20516;-79
2023/04/01 00:51:13;;;;;;;0.85;0.20;;;;;;;8.52;100.00;100820.06;5012202;28;20495;-77
2023/04/01 00:53:45;;;;;;;0.30;0.10;;;;;;;8.51;100.00;100818.31;5010600;28;20050;-79
2023/04/01 00:56:16;;;;;;;0.08;0.08;;;;;;;8.35;100.00;100811.63;5014343;28;20038;-76
2023/04/01 00:58:52;;;;;;;0.00;0.00;;;;;;;8.35;100.00;100816.78;5009957;28;20109;-78
2023/04/01 01:01:24;;;;;;;0.55;0.30;;;;;;;8.33;100.00;100814.13;5004020;28;20050;-78
2023/04/01 01:03:52;;;;;;;1.73;0.20;;;;;;;8.33;100.00;100808.13;5005804;28;20042;-78
2023/04/01 01:06:38;;;;;;;0.00;0.00;;;;;;;8.33;100.00;100798.66;5005901;28;20076;-75
2023/04/01 01:09:24;;;;;;;0.20;0.20;;;;;;;8.37;100.00;100791.94;5004969;28;20936;-78
2023/04/01 01:12:02;;;;;;;0.55;0.13;;;;;;;8.38;100.00;100784.28;5000661;28;20145;-74
2023/04/01 01:14:47;;;;;;;0.35;0.10;;;;;;;8.35;100.00;100780.69;5006193;28;20065;-74
2023/04/01 01:17:26;;;;;;;0.57;0.20;;;;;;;8.36;100.00;100774.69;5006061;28;20041;-75
2023/04/01 01:20:32;;;;;;;1.17;0.17;;;;;;;8.34;100.00;100764.34;5007740;28;20053;-76
2023/04/01 01:23:42;;;;;;;0.32;0.17;;;;;;;8.30;100.00;100769.34;5000777;28;20073;-75
2023/04/01 01:26:35;;;;;;;0.43;0.20;;;;;;;8.31;100.00;100771.06;5001536;28;20054;-73
2023/04/01 01:29:14;;;;;;;1.55;0.20;;;;;;;8.22;100.00;100769.00;5002326;28;20058;-76
2023/04/01 01:31:52;;;;;;;0.63;0.38;;;;;;;8.18;100.00;100762.88;5007063;28;20046;-76
2023/04/01 01:34:31;;;;;;;0.20;0.20;;;;;;;8.18;100.00;100754.28;5010459;28;20066;-75
2023/04/01 01:37:07;;;;;;;0.52;0.30;;;;;;;8.19;100.00;100741.44;4997381;28;20117;-76
2023/04/01 01:39:37;;;;;;;0.50;0.30;;;;;;;8.24;100.00;100751.03;5012721;28;20057;-75
2023/04/01 01:42:15;;;;;;;1.75;0.60;;;;;;;8.24;100.00;100741.59;5024452;28;20531;-75
2023/04/01 01:44:49;;;;;;;0.63;0.43;;;;;;;8.26;100.00;100733.94;5023266;28;20077;-76
2023/04/01 01:47:21;;;;;;;1.08;0.52;;;;;;;8.25;100.00;100732.19;5016998;28;20464;-75
2023/04/01 01:49:51;;;;;;;0.73;0.38;;;;;;;8.25;100.00;100727.03;5020646;28;20060;-77
2023/04/01 01:52:23;;;;;;;0.35;0.30;;;;;;;8.24;100.00;100730.41;5019005;28;20042;-77
2023/04/01 01:54:53;;;;;;;2.75;0.60;;;;;;;8.18;100.00;100737.09;5034556;28;20048;-76
2023/04/01 01:57:25;;;;;;;1.38;0.50;;;;;;;8.21;100.00;100720.00;5025308;28;20609;-78
2023/04/01 01:59:58;;;;;;;0.55;0.35;;;;;;;8.18;100.00;100718.19;5025550;28;20128;-76
2023/04/01 02:02:31;;;;;;;0.50;0.45;;;;;;;8.11;100.00;100705.91;5013031;28;20056;-74
2023/04/01 02:05:00;;;;;;;0.52;0.30;;;;;;;8.06;100.00;100712.53;5026641;28;20510;-76
2023/04/01 02:07:34;;;;;;;0.93;0.40;;;;;;;8.04;100.00;100702.19;5021177;28;20054;-77
2023/04/01 02:10:04;;;;;;;0.40;0.20;;;;;;;8.04;100.00;100701.28;5025220;28;20516;-79
2023/04/01 02:12:34;;;;;;;0.82;0.40;;;;;;;8.02;100.00;100695.19;5028027;28;20057;-78
2023/04/01 02:15:07;;;;;;;2.90;0.22;;;;;;;7.95;100.00;100702.72;5016814;28;20046;-77
2023/04/01 02:17:37;;;;;;;0.13;0.10;;;;;;;7.88;100.00;100698.13;5015890;28;20064;-76
2023/04/01 02:20:11;;;;;;;0.50;0.30;;;;;;;7.82;100.00;100704.75;5014420;28;20093;-79
2023/04/01 02:22:44;;;;;;;0.60;0.30;;;;;;;7.79;100.00;100689.16;5011716;28;20514;-78
2023/04/01 02:25:14;;;;;;;1.65;0.32;;;;;;;7.80;100.00;100693.50;5022609;28;20111;-80
2023/04/01 02:27:46;;;;;;;0.68;0.28;;;;;;;7.76;100.00;100695.06;5022003;28;20073;-79
2023/04/01 02:30:15;;;;;;;0.20;0.10;;;;;;;7.78;100.00;100692.56;5022659;28;20057;-81
2023/04/01 02:32:46;;;;;;;0.35;0.13;;;;;;;7.72;100.00;100680.31;5024032;28;20049;-80
2023/04/01 02:35:17;;;;;;;0.20;0.20;;;;;;;7.71;100.00;100687.16;5031311;28;20045;-76
2023/04/01 02:37:50;;;;;;;0.65;0.17;;;;;;;7.68;100.00;100683.59;5015290;28;20065;-77
2023/04/01 02:40:19;;;;;;;0.35;0.20;;;;;;;7.70;100.00;100664.81;5022515;28;20053;-77
2023/04/01 02:42:48;;;;;;;1.02;0.20;;;;;;;7.70;100.00;100667.38;5022322;28;20766;-81
2023/04/01 02:45:17;;;;;;;0.28;0.20;;;;;;;7.75;100.00;100678.72;5026369;28;20056;-80
2023/04/01 02:47:46;;;;;;;0.38;0.17;;;;;;;7.73;100.00;100672.63;5017479;28;20537;-79
2023/04/01 02:50:14;;;;;;;2.38;0.43;;;;;;;7.72;100.00;100662.31;5021232;28;20049;-77
2023/04/01 02:52:43;;;;;;;1.65;0.22;;;;;;;7.68;100.00;100666.44;5027206;28;20060;-79
2023/04/01 02:55:13;;;;;;;0.17;0.17;;;;;;;7.60;100.00;100672.97;5021536;28;20050;-76
2023/04/01 02:57:42;;;;;;;0.90;0.30;;;;;;;7.62;100.00;100670.47;5023164;28;20053;-77
2023/04/01 03:00:12;;;;;;;1.67;0.30;;;;;;;7.62;100.00;100650.72;5020457;28;20582;-77
2023/04/01 03:02:40;;;;;;;0.47;0.20;;;;;;;7.63;100.00;100649.94;5019649;28;20096;-78
2023/04/01 03:05:10;;;;;;;0.30;0.30;;;;;;;7.58;100.00;100647.97;5015248;28;20045;-76
2023/04/01 03:07:38;;;;;;;0.47;0.20;;;;;;;7.56;100.00;100655.66;5024262;28;20162;-77
2023/04/01 03:10:08;;;;;;;0.25;0.20;;;;;;;7.61;100.00;100646.41;5031587;28;20057;-78
2023/04/01 03:12:38;;;;;;;0.35;0.10;;;;;;;7.59;100.00;100640.31;5021780;28;20061;-76
2023/04/01 03:15:08;;;;;;;0.20;0.20;;;;;;;7.53;100.00;100648.66;5019919;28;20541;-79
2023/04/01 03:17:36;;;;;;;0.75;0.35;;;;;;;7.53;100.00;100642.66;5025878;28;20113;-79
2023/04/01 03:20:06;;;;;;;0.63;0.10;;;;;;;7.50;100.00;100650.25;5019217;28;20141;-80
2023/04/01 03:22:34;;;;;;;0.20;0.10;;;;;;;7.53;100.00;100637.50;5039948;28;20047;-77
2023/04/01 03:25:04;;;;;;;0.30;0.13;;;;;;;7.57;100.00;100636.81;5020351;28;20037;-78
2023/04/01 03:27:32;;;;;;;0.30;0.10;;;;;;;7.48;100.00;100626.13;5011004;28;20081;-76
2023/04/01 03:30:03;;;;;;;1.10;0.32;;;;;;;7.54;100.00;100628.97;5024192;28;20061;-77
2023/04/01 03:32:31;;;;;;;0.40;0.20;;;;;;;7.50;100.00;100640.81;5019984;28;20108;-77
2023/04/01 03:35:00;;;;;;;0.52;0.20;;;;;;;7.41;100.00;100625.00;5032521;28;20659;-75
2023/04/01 03:37:29;;;;;;;0.17;0.10;;;;;;;7.56;100.00;100645.34;5026964;28;20079;-79
2023/04/01 03:39:58;;;;;;;0.10;0.10;;;;;;;7.51;100.00;100631.41;5014564;28;20061;-78
2023/04/01 03:42:27;;;;;;;0.52;0.10;;;;;;;7.45;100.00;100638.91;5013916;28;20114;-75
2023/04/01 03:44:56;;;;;;;1.27;0.05;;;;;;;7.45;100.00;100641.47;5025895;28;20053;-77
2023/04/01 03:47:26;;;;;;;0.30;0.20;;;;;;;7.40;100.00;100646.44;5018114;28;20054;-80
2023/04/01 03:49:55;;;;;;;0.20;0.17;;;;;;;7.41;100.00;100635.31;5014093;28;20069;-77
2023/04/01 03:52:24;;;;;;;0.00;0.00;;;;;;;7.38;100.00;100634.31;5003514;28;20137;-75
2023/04/01 03:54:52;;;;;;;1.00;0.10;;;;;;;7.35;100.00;100635.06;5019073;28;20052;-77
2023/04/01 03:57:21;;;;;;;0.00;0.00;;;;;;;7.39;100.00;100641.22;5026386;28;20140;-76
2023/04/01 03:59:49;;;;;;;0.10;0.10;;;;;;;7.41;100.00;100631.88;5022165;28;20053;-75
2023/04/01 04:02:19;;;;;;;0.52;0.22;;;;;;;7.43;100.00;100635.38;5020382;28;20054;-75
2023/04/01 04:04:49;;;;;;;1.05;0.28;;;;;;;7.44;100.00;100634.56;5026799;28;20168;-76
2023/04/01 04:07:18;;;;;;;0.20;0.20;;;;;;;7.49;100.00;100635.59;5025394;28;20053;-74
2023/04/01 04:09:47;;;;;;;0.22;0.15;;;;;;;7.45;100.00;100632.03;5020352;28;20053;-72
2023/04/01 04:12:16;;;;;;;0.52;0.30;;;;;;;7.42;100.00;100634.50;5024028;28;20060;-73
2023/04/01 04:14:44;;;;;;;1.52;0.20;;;;;;;7.42;100.00;100618.16;5024441;28;20053;-74
2023/04/01 04:17:16;;;;;;;0.10;0.00;;;;;;;7.39;100.00;100631.78;5019482;28;20046;-77
2023/04/01 04:19:44;;;;;;;0.20;0.20;;;;;;;7.41;100.00;100629.28;5018964;28;20046;-76
2023/04/01 04:22:14;;;;;;;1.33;0.30;;;;;;;7.43;100.00;100637.97;5023537;28;20061;-76
2023/04/01 04:24:43;;;;;;;0.45;0.20;;;;;;;7.43;100.00;100638.81;5021134;28;20053;-76
2023/04/01 04:27:12;;;;;;;0.57;0.20;;;;;;;7.41;100.00;100625.00;5021551;28;20045;-78
2023/04/01 04:29:41;;;;;;;0.13;0.10;;;;;;;7.45;100.00;100618.31;5020022;28;20050;-79
2023/04/01 04:32:09;;;;;;;1.23;0.00;;;;;;;7.44;100.00;100621.69;5021785;28;20715;-75
2023/04/01 04:34:38;;;;;;;0.03;0.03;;;;;;;7.47;100.00;100608.94;5030826;28;20052;-79
2023/04/01 04:37:07;;;;;;;0.20;0.15;;;;;;;7.50;100.00;100624.50;5025638;28;20112;-79
2023/04/01 04:39:37;;;;;;;0.47;0.15;;;;;;;7.45;100.00;100626.03;5018002;28;20056;-79
2023/04/01 04:42:07;;;;;;;0.95;0.30;;;;;;;7.46;100.00;100626.06;5023253;28;20053;-78
2023/04/01 04:44:35;;;;;;;0.20;0.20;;;;;;;7.48;100.00;100618.41;5032453;28;20149;-79
2023/04/01 04:47:04;;;;;;;0.38;0.20;;;;;;;7.50;100.00;100621.94;5025368;28;20123;-79
2023/04/01 04:49:33;;;;;;;0.20;0.10;;;;;;;7.48;100.00;100610.69;5032096;28;20041;-80
2023/04/01 04:52:02;;;;;;;0.25;0.20;;;;;;;7.46;100.00;100612.31;5020702;28;20112;-79
2023/04/01 04:54:31;;;;;;;0.10;0.10;;;;;;;7.49;100.00;100604.72;5024294;28;20494;-76
2023/04/01 04:59:36;;;;;;;0.20;0.20;;;;;;;7.44;100.00;100603.66;5002598;28;20054;-82
2023/04/01 05:02:05;;;;;;;0.10;0.10;;;;;;;7.46;100.00;100596.88;5010808;28;20048;-81
2023/04/01 05:04:37;;;;;;;1.27;0.20;;;;;;;7.43;100.00;100595.06;5009700;28;20069;-80
2023/04/01 05:07:06;;;;;;;1.42;0.47;;;;;;;7.42;100.00;100590.75;5010934;28;20053;-81
2023/04/01 05:09:34;;;;;;;3.08;0.20;;;;;;;7.39;100.00;100606.06;5015486;28;20054;-81
2023/04/01 05:12:03;;;;;;;0.10;0.10;;;;;;;7.39;100.00;100584.59;5011257;28;20050;-81
2023/04/01 05:14:33;;;;;;;0.20;0.20;;;;;;;7.43;100.00;100584.78;5013963;28;20046;-82
2023/04/01 05:17:04;;;;;;;5.53;0.30;;;;;;;7.43;100.00;100581.31;5005534;28;20053;-78
2023/04/01 05:19:33;;;;;;;0.13;0.13;;;;;;;7.45;100.00;100574.53;5002820;28;20051;-83
2023/04/01 05:22:01;;;;;;;0.30;0.30;;;;;;;7.48;100.00;100579.81;5007204;28;20597;-84
2023/04/01 05:24:30;;;;;;;0.20;0.10;;;;;;;7.48;100.00;100583.25;5010645;28;20056;-78
2023/04/01 05:26:58;;;;;;;0.38;0.17;;;;;;;7.51;100.00;100585.06;5002687;28;20057;-81
2023/04/01 05:29:27;;;;;;;0.20;0.10;;;;;;;7.51;100.00;100600.50;5002687;28;20127;-77
2023/04/01 05:31:56;;;;;;;0.60;0.20;;;;;;;7.49;100.00;100584.13;5009394;28;21300;-76
2023/04/01 05:34:26;;;;;;;0.00;0.00;;;;;;;7.46;100.00;100581.44;5009490;28;20049;-80
2023/04/01 05:36:55;;;;;;;0.70;0.17;;;;;;;7.55;100.00;100602.38;5014941;28;20049;-79
2023/04/01 05:39:23;;;;;;;0.57;0.20;;;;;;;7.57;100.00;100610.19;5008156;28;20042;-78
2023/04/01 05:41:52;;;;;;;0.63;0.20;;;;;;;7.54;100.00;100611.81;5014297;28;20292;-77
2023/04/01 05:44:20;;;;;;;0.85;0.75;;;;;;;7.58;100.00;100620.53;5001163;28;20057;-80
2023/04/01 05:46:49;;;;;;;0.10;0.10;;;;;;;7.61;100.00;100614.66;5002227;28;20066;-79
2023/04/01 05:49:18;;;;;;;1.77;0.32;;;;;;;7.63;100.00;100624.19;5011407;28;20042;-81
2023/04/01 05:51:48;;;;;;;0.43;0.10;;;;;;;7.67;100.00;100631.22;5010151;28;20058;-80
2023/04/01 05:54:17;;;;;;;0.30;0.15;;;;;;;7.67;100.00;100623.50;5006412;28;20128;-78
2023/04/01 05:56:45;;;;;;;0.20;0.10;;;;;;;7.72;100.00;100624.53;5005996;28;20045;-79
2023/04/01 05:59:14;;;;;;;0.82;0.20;;;;;;;7.72;100.00;100631.41;4992341;28;20055;-78
2023/04/01 06:01:43;;;;;;;0.25;0.20;;;;;;;7.72;100.00;100628.81;4990809;28;20113;-79
2023/04/01 06:04:16;;;;;;;0.20;0.20;;;;;;;7.78;100.00;100635.88;4990717;28;20050;-78
2023/04/01 06:06:47;;;;;;;0.20;0.20;;;;;;;7.79;100.00;100632.47;4980289;28;20069;-81
2023/04/01 06:09:17;;;;;;;0.22;0.20;;;;;;;7.78;100.00;100629.03;4990272;28;20503;-80
2023/04/01 06:12:02;;;;;;;0.22;0.20;;;;;;;7.79;100.00;100635.06;4991734;28;20046;-82
2023/04/01 06:14:38;;;;;;;0.55;0.20;;;;;;;7.74;100.00;100646.09;4993679;28;20046;-79
2023/04/01 06:17:22;;;;;;;0.05;0.05;;;;;;;7.82;100.00;100635.19;4991522;28;20062;-78
2023/04/01 06:20:00;;;;;;;0.10;0.10;;;;;;;7.80;100.00;100640.28;4988088;28;20046;-79
2023/04/01 06:22:51;;;;;;;0.32;0.10;;;;;;;7.87;100.00;100638.81;4988854;28;20046;-78
2023/04/01 06:25:33;;;;;;;0.25;0.10;;;;;;;7.91;100.00;100645.84;4988299;28;20051;-79
2023/04/01 06:28:36;;;;;;;0.35;0.08;;;;;;;7.96;100.00;100641.75;4990550;28;20092;-78
2023/04/01 06:31:07;;;;;;;;;;;;;;;8.02;100.00;100662.59;4988592;28;20058;-77
2023/04/01 06:33:56;;;;;;;0.10;0.10;;;;;;;8.06;100.00;100654.16;4989220;28;20005;-79
2023/04/01 06:36:40;;;;;;;0.10;0.05;;;;;;;8.10;100.00;100671.47;4987365;28;20177;-77
2023/04/01 06:39:34;;;;;;;0.00;0.00;;;;;;;8.14;100.00;100665.63;4988745;28;20053;-78
2023/04/01 06:42:34;;;;;;;0.00;0.00;;;;;;;8.16;100.00;100676.00;4993793;28;20046;-77
2023/04/01 06:45:17;;;;;;;0.55;0.10;;;;;;;8.17;100.00;100667.44;4964344;28;20057;-78
2023/04/01 06:47:59;;;;;;;0.05;0.05;;;;;;;8.17;100.00;100673.47;4991823;28;20047;-77
2023/04/01 06:50:34;;;;;;;0.13;0.13;;;;;;;8.17;100.00;100682.91;4982583;28;20046;-77
2023/04/01 06:53:12;;;;;;;0.95;0.20;;;;;;;8.19;100.00;100689.88;4984860;28;20058;-78
2023/04/01 06:55:45;;;;;;;0.28;0.15;;;;;;;8.21;100.00;100689.06;4991459;28;20068;-77
2023/04/01 06:58:22;;;;;;;0.10;0.10;;;;;;;8.23;100.00;100693.47;4992548;28;20498;-77
2023/04/01 07:00:53;;;;;;;0.17;0.10;;;;;;;8.25;100.00;100690.94;5002061;28;20046;-77
2023/04/01 07:03:29;;;;;;;0.65;0.10;;;;;;;8.25;100.00;100678.06;5004554;28;20132;-77
2023/04/01 07:06:00;;;;;;;0.03;0.03;;;;;;;8.23;100.00;100696.03;5007474;28;20054;-78
2023/04/01 07:08:32;;;;;;;0.13;0.00;;;;;;;8.22;100.00;100701.13;5005712;28;20084;-77
2023/04/01 07:11:04;;;;;;;0.15;0.10;;;;;;;8.21;100.00;100695.09;4997882;28;20046;-77
2023/04/01 07:13:38;;;;;;;0.20;0.20;;;;;;;8.18;100.00;100695.88;5003400;28;20053;-77
2023/04/01 07:16:17;;;;;;;0.15;0.05;;;;;;;8.16;100.00;100696.63;5001496;28;20042;-77
2023/04/01 07:18:50;;;;;;;0.70;0.30;;;;;;;8.16;100.00;100699.22;5005762;28;20062;-77
2023/04/01 07:21:27;;;;;;;0.32;0.10;;;;;;;8.12;100.00;100685.31;5012231;28;20504;-77
2023/04/01 07:24:00;;;;;;;0.10;0.10;;;;;;;8.11;100.00;100686.16;5005991;28;20049;-76
2023/04/01 07:26:30;;;;;;;0.00;0.00;;;;;;;8.12;100.00;100684.44;5003911;28;20042;-76
2023/04/01 07:28:59;;;;;;;0.28;0.10;;;;;;;8.13;100.00;100705.13;5007806;28;20493;-77
2023/04/01 07:31:59;;;;;;;0.52;0.20;;;;;;;8.10;100.00;100707.56;5000583;28;20053;-77
2023/04/01 07:34:30;;;;;;;2.63;0.20;;;;;;;8.08;100.00;100693.75;4995121;28;20053;-75
2023/04/01 07:37:08;;;;;;;0.17;0.10;;;;;;;8.06;100.00;100697.94;5000387;28;20054;-77
2023/04/01 07:39:46;;;;;;;0.30;0.10;;;;;;;8.04;100.00;100707.34;4992477;28;20055;-77
2023/04/01 07:42:25;;;;;;;0.30;0.20;;;;;;;8.00;100.00;100684.84;4992218;28;20076;-77
2023/04/01 07:45:02;;;;;;;0.52;0.32;;;;;;;7.98;100.00;100683.91;5014105;28;20046;-78
2023/04/01 07:47:43;;;;;;;0.25;0.17;;;;;;;7.99;100.00;100703.69;5004951;28;20061;-77
2023/04/01 07:50:20;;;;;;;3.78;0.55;;;;;;;7.95;100.00;100717.31;5001949;28;20049;-78
2023/04/01 07:52:58;;;;;;;0.57;0.43;;;;;;;7.94;100.00;100733.56;5007009;28;20049;-75
2023/04/01 07:55:38;;;;;;;1.23;0.28;;;;;;;7.88;100.00;100738.47;5001539;28;20101;-77
2023/04/01 07:58:17;;;;;;;0.88;0.30;;;;;;;7.84;100.00;100728.88;5000914;28;20062;-76
2023/04/01 08:00:53;;;;;;;2.22;0.35;;;;;;;7.82;100.00;100722.78;4988712;28;20137;-77
2023/04/01 08:03:33;;;;;;;1.02;0.40;;;;;;;7.82;100.00;100730.50;4980462;28;20417;-77
2023/04/01 08:06:07;;;;;;;0.68;0.38;;;;;;;7.73;100.00;100724.16;4988653;28;20145;-77
2023/04/01 08:08:50;;;;;;;4.05;0.45;;;;;;;7.82;100.00;100725.34;4981542;28;20054;-76
2023/04/01 08:11:32;;;;;;;0.55;0.13;;;;;;;7.81;100.00;100728.72;4986245;28;20062;-76
2023/04/01 08:14:10;;;;;;;2.05;0.57;;;;;;;7.78;100.00;100723.47;4986385;28;20058;-76
2023/04/01 08:16:48;;;;;;;0.68;0.20;;;;;;;7.76;100.00;100726.88;4982312;28;20101;-76
2023/04/01 08:19:30;;;;;;;4.00;0.80;;;;;;;7.78;100.00;100724.34;4982806;28;20109;-76
2023/04/01 08:22:04;;;;;;;0.68;0.22;;;;;;;7.75;100.00;100729.38;4990715;28;20885;-76
2023/04/01 08:24:39;;;;;;;2.53;0.25;;;;;;;7.71;100.00;100738.66;4981553;28;20050;-77
2023/04/01 08:27:15;;;;;;;6.65;0.68;;;;;;;7.70;100.00;100736.03;4995348;28;20046;-77
2023/04/01 08:29:52;;;;;;;1.20;0.63;;;;;;;7.67;100.00;100747.09;4981652;28;20129;-76
2023/04/01 08:32:27;;;;;;;3.83;0.75;;;;;;;7.66;100.00;100755.63;4994830;28;20054;-76
2023/04/01 08:35:08;;;;;;;3.13;0.28;;;;;;;7.66;100.00;100741.88;4993961;28;20050;-76
2023/04/01 08:37:41;;;;;;;2.78;0.40;;;;;;;7.66;100.00;100744.47;4994764;28;20104;-76
2023/04/01 08:40:19;;;;;;;;;;;;;;;7.63;100.00;100732.34;4992729;28;20065;-75
2023/04/01 08:43:06;;;;;;;4.00;0.52;;;;;;;7.63;100.00;100734.91;4987241;28;20366;-77
2023/04/01 08:45:52;;;;;;;3.80;0.85;;;;;;;7.64;100.00;100744.38;4991837;28;20055;-74
2023/04/01 08:49:03;;;;;;;5.20;0.90;;;;;;;7.62;100.00;100743.44;4995624;28;20069;-75
2023/04/01 08:52:28;;;;;;;2.00;0.35;;;;;;;7.61;100.00;100744.25;4992954;28;20057;-74
2023/04/01 08:55:26;;;;;;;3.53;0.90;;;;;;;7.54;100.00;100734.53;4925215;29;20548;-75
2023/04/01 08:58:17;;;;;;;2.00;0.63;;;;;;;7.57;100.00;100734.66;4928980;28;20055;-76
2023/04/01 09:00:55;;;;;;;1.35;0.52;;;;;;;7.57;100.00;100750.09;4974867;28;20604;-76
2023/04/01 09:03:53;;;;;;;3.20;0.68;;;;;;;7.57;100.00;100739.81;4990006;28;20042;-76
2023/04/01 09:06:41;;;;;;;7.13;2.17;;;;;;;7.57;100.00;100741.50;4988010;28;20051;-74
2023/04/01 09:09:41;;;;;;;3.55;0.70;;;;;;;7.56;100.00;100738.06;4988627;28;20503;-75
2023/04/01 09:12:26;;;;;;;5.57;0.90;;;;;;;7.57;100.00;100746.66;4996041;28;20061;-75
2023/04/01 09:15:16;;;;;;;3.95;1.50;;;;;;;7.56;100.00;100748.34;4993129;28;20061;-76
2023/04/01 09:18:25;;;;;;;4.97;1.50;;;;;;;7.55;100.00;100754.31;4991509;28;20050;-75
2023/04/01 09:21:11;;;;;;;5.15;1.10;;;;;;;7.55;100.00;100756.88;4988615;28;20069;-76
2023/04/01 09:23:49;;;;;;;2.42;0.80;;;;;;;7.53;100.00;100745.63;4982330;28;20050;-75
2023/04/01 09:26:36;;;;;;;4.70;0.93;;;;;;;7.50;100.00;100748.09;4990929;28;20225;-76
2023/04/01 09:29:16;;;;;;;6.28;1.15;;;;;;;7.46;100.00;100744.50;4992678;28;20042;-74
2023/04/01 09:32:03;;;;;;;2.45;0.47;;;;;;;7.42;100.00;100749.44;4987448;28;20098;-76
2023/04/01 09:34:53;;;;;;;3.22;0.93;;;;;;;7.34;100.00;100732.00;4995317;28;20072;-76
2023/04/01 09:37:36;;;;;;;4.55;0.57;;;;;;;7.33;100.00;100732.81;4988068;28;20077;-75
2023/04/01 09:40:26;;;;;;;4.22;1.80;;;;;;;7.34;100.00;100737.13;4985434;28;20051;-76
2023/04/01 09:43:16;;;;;;;6.55;1.35;;;;;;;7.30;100.00;100737.81;4986155;28;20113;-75
2023/04/01 09:45:55;;;;;;;5.75;0.82;;;;;;;7.26;100.00;100732.47;4988689;28;20062;-75
2023/04/01 09:48:42;;;;;;;9.55;0.85;;;;;;;7.24;100.00;100745.31;4993589;28;20108;-75
2023/04/01 09:51:24;;;;;;;1.05;0.52;;;;;;;7.21;100.00;100740.00;4986207;28;20065;-75
2023/04/01 09:54:07;;;;;;;5.53;0.90;;;;;;;7.21;100.00;100750.28;4983991;28;20491;-75
2023/04/01 09:57:18;;;;;;;4.32;0.70;;;;;;;7.17;100.00;100748.44;4996801;28;20054;-74
2023/04/01 10:00:05;;;;;;;3.05;0.65;;;;;;;7.20;100.00;100753.69;4985750;28;20483;-74
2023/04/01 10:03:07;;;;;;;4.00;0.88;;;;;;;7.21;100.00;100758.03;4991333;28;20129;-74
2023/04/01 10:06:00;;;;;;;5.20;1.55;;;;;;;7.19;100.00;100745.91;4990725;28;20053;-74
2023/04/01 10:09:06;;;;;;;4.78;0.90;;;;;;;7.19;100.00;100751.91;4944499;28;20097;-75
2023/04/01 10:12:00;;;;;;;5.90;0.75;;;;;;;7.16;100.00;100746.66;4990419;28;20104;-74
2023/04/01 10:14:54;;;;;;;5.70;0.77;;;;;;;7.09;100.00;100742.94;4992395;28;20505;-73
2023/04/01 10:17:55;;;;;;;7.32;0.75;;;;;;;7.10;100.00;100739.56;4989233;28;20046;-75
2023/04/01 10:20:50;;;;;;;3.90;0.88;;;;;;;7.14;100.00;100745.72;4992507;28;20054;-75
2023/04/01 10:23:41;;;;;;;4.65;0.93;;;;;;;7.03;100.00;100731.50;4993908;28;20062;-74
2023/04/01 10:27:07;;;;;;;5.20;1.10;;;;;;;7.10;100.00;100757.56;4998295;28;20074;-73
2023/04/01 10:30:09;;;;;;;0.38;0.30;;;;;;;7.12;100.00;100762.75;4988161;28;20046;-73
2023/04/01 10:33:05;;;;;;;4.97;0.68;;;;;;;7.13;100.00;100760.28;4984527;28;20111;-74
2023/04/01 10:36:08;;;;;;;0.85;0.20;;;;;;;7.14;100.00;100756.00;4994140;28;20096;-73
2023/04/01 10:39:14;;;;;;;1.20;0.28;;;;;;;7.14;100.00;100749.16;4934892;28;20053;-75
2023/04/01 10:42:22;;;;;;;6.43;0.50;;;;;;;7.10;100.00;100747.28;4989660;28;20049;-77
2023/04/01 10:45:21;;;;;;;3.38;0.77;;;;;;;7.10;100.00;100754.09;4940980;28;20058;-77
2023/04/01 10:48:19;;;;;;;0.45;0.15;;;;;;;7.14;100.00;100753.44;4992122;28;20510;-78
2023/04/01 10:51:12;;;;;;;5.35;1.45;;;;;;;7.16;100.00;100756.94;4984234;28;20078;-77
2023/04/01 10:54:19;;;;;;;5.05;0.43;;;;;;;7.15;100.00;100760.34;4977226;28;20038;-78
2023/04/01 10:56:56;;;;;;;0.73;0.30;;;;;;;7.20;100.00;100773.41;4964024;28;20081;-76
2023/04/01 10:59:55;;;;;;;2.25;0.38;;;;;;;7.21;100.00;100776.03;4995183;28;20054;-77
2023/04/01 11:03:21;;;;;;;2.97;0.40;;;;;;;7.24;100.00;100771.03;4988151;28;20054;-77
2023/04/01 11:06:21;;;;;;;1.38;0.45;;;;;;;7.24;100.00;100783.91;4912322;29;20052;-78
2023/04/01 11:09:30;;;;;;;3.25;0.50;;;;;;;7.24;100.00;100786.47;4970743;28;20050;-77
2023/04/01 11:12:45;;;;;;;2.22;0.50;;;;;;;7.20;100.00;100778.56;4981133;28;20042;-76
2023/04/01 11:15:53;;;;;;;1.13;0.22;;;;;;;7.15;100.00;100780.94;4986298;28;20113;-77
2023/04/01 11:19:00;;;;;;;0.85;0.43;;;;;;;7.12;100.00;100780.78;4909158;29;20544;-78
2023/04/01 11:21:53;;;;;;;1.48;0.20;;;;;;;7.07;100.00;100772.84;4990073;28;20049;-75
2023/04/01 11:24:49;;;;;;;0.47;0.17;;;;;;;6.99;100.00;100769.09;4976579;28;20047;-77
2023/04/01 11:27:37;;;;;;;3.78;0.82;;;;;;;6.92;100.00;100772.22;4989519;28;20054;-77
2023/04/01 11:30:17;;;;;;;1.55;0.63;;;;;;;6.83;100.00;100777.81;4993388;28;20053;-77
2023/04/01 11:32:56;;;;;;;0.10;0.10;;;;;;;6.79;100.00;100781.06;4989481;28;20484;-77
2023/04/01 11:36:02;;;;;;;3.70;0.47;;;;;;;6.71;100.00;100785.84;4988271;28;20137;-76
2023/04/01 11:38:52;;;;;;;0.45;0.20;;;;;;;6.64;100.00;100795.78;4978043;28;20053;-78
2023/04/01 11:41:29;;;;;;;0.65;0.38;;;;;;;6.58;100.00;100785.22;4963352;28;20057;-77
2023/04/01 11:44:14;;;;;;;3.08;0.55;;;;;;;6.50;100.00;100783.19;4989721;28;20046;-77
2023/04/01 11:46:51;;;;;;;0.17;0.13;;;;;;;6.43;100.00;100773.41;4990789;28;20054;-76
2023/04/01 11:49:39;;;;;;;0.55;0.30;;;;;;;6.37;100.00;100773.16;4990008;28;20043;-77
2023/04/01 11:52:23;;;;;;;3.97;0.45;;;;;;;6.34;100.00;100785.84;4987059;28;20125;-77
2023/04/01 11:55:15;;;;;;;0.00;0.00;;;;;;;6.26;100.00;100784.59;4983984;28;20124;-77
2023/04/01 11:57:58;;;;;;;0.52;0.30;;;;;;;6.19;100.00;100788.56;4982852;28;20053;-75
2023/04/01 12:00:43;;;;;;;;;;;;;;;6.19;100.00;100795.41;4987478;28;20078;-75
2023/04/01 12:03:33;;;;;;;2.05;0.28;;;;;;;6.14;100.00;100796.84;4988802;28;19937;-78
2023/04/01 12:06:13;;;;;;;0.50;0.32;;;;;;;6.11;100.00;100802.72;4987181;28;20264;-77
2023/04/01 12:08:54;;;;;;;1.50;0.30;;;;;;;6.10;100.00;100805.25;4980039;28;20051;-77
2023/04/01 12:11:30;;;;;;;1.10;0.57;;;;;;;6.10;100.00;100802.69;4992229;28;20106;-78
2023/04/01 12:14:06;;;;;;;0.30;0.30;;;;;;;6.08;100.00;100803.47;4990943;28;20057;-78
2023/04/01 12:16:55;;;;;;;2.33;0.60;;;;;;;6.05;100.00;100800.75;4990811;28;20054;-77
2023/04/01 12:19:34;;;;;;;1.25;0.40;;;;;;;6.07;100.00;100801.72;4985848;28;20046;-77
2023/04/01 12:22:24;;;;;;;0.10;0.10;;;;;;;6.10;100.00;100810.38;4990922;28;20415;-76